Terminal Aerodrome Forecast
Issued by NWS Cleveland, OH

Home | Current Version | Previous Version | Text Only | Print | Product List | Glossary On
Versions: 1 2 3 4 5 6 7 8 9 10 11 12 13 14 15 16 17 18
327
FTUS41 KCLE 221121
TAFYNG
TAF
KYNG 221121Z 2212/2312 31008KT P6SM BKN030
      TEMPO 2212/2216 -SHSN SCT007 BKN015
     FM230300 25003KT P6SM BKN035
     FM230600 21004KT P6SM SCT035 SCT250=

USA.gov is the U.S. government's official web portal to all federal, state and local government web resources and services.